Weather at Waterloo Airport

Public forecast

Using degrees Celsius for public forecast. Weather courtesy of forecast.io.

Current aviation weather report (METAR) for Waterloo Airport

Retrieved 2020/09/23 09:00 UTC (41 minutes ago):

CYKF 230900Z AUTO 30008KT 9SM CLR 12/11 A2999 RMK SLP155

Aviation forecast (TAF) for Waterloo Airport

Retrieved 2020/09/23 08:39 UTC (1 hour ago):

TAF CYKF 230738Z 2308/2320 30007KT P6SM FEW030 FM231300 31010G20KT P6SM SKC BECMG 2318/2320 28015KT RMK FCST BASED ON AUTO OBS NXT FCST BY 231400Z